Time;durP1;ratioP1;P1;durP2;ratioP2;P2;SDS_P1;SDS_P2;PMS_P1;PMS_P2;Temp;Humidity;BMP_temperature;BMP_pressure;BME280_temperature;BME280_humidity;BME280_pressure;Samples;Min_cycle;Max_cycle;Signal;HPM_P1;HPM_P2
2022/12/11 00:03:56;;;;;;;30.50;13.23;;;;;;;-0.53;100.00;99908.09;3405911;84;99102;-78
2022/12/11 00:08:56;;;;;;;24.60;12.10;;;;;;;-0.54;100.00;99911.91;3419029;84;32887;-80
2022/12/11 00:13:57;;;;;;;24.80;11.63;;;;;;;-0.57;100.00;99903.61;3414986;84;99280;-79
2022/12/11 00:18:58;;;;;;;25.00;12.20;;;;;;;-0.53;100.00;99904.58;3421223;84;29135;-80
2022/12/11 00:23:59;;;;;;;23.57;11.38;;;;;;;-0.51;100.00;99894.27;3424133;84;99029;-80
2022/12/11 00:29:00;;;;;;;26.37;12.27;;;;;;;-0.49;100.00;99896.89;3434059;82;31654;-80
2022/12/11 00:34:01;;;;;;;25.57;12.63;;;;;;;-0.48;100.00;99886.31;3492492;82;98873;-80
2022/12/11 00:39:03;;;;;;;25.43;13.20;;;;;;;-0.48;100.00;99889.02;3504161;82;31582;-80
2022/12/11 00:44:04;;;;;;;24.70;11.53;;;;;;;-0.46;100.00;99880.02;3490324;83;98914;-80
2022/12/11 00:49:05;;;;;;;22.93;11.73;;;;;;;-0.49;100.00;99875.81;3485558;84;31950;-80
2022/12/11 00:54:06;;;;;;;24.97;11.97;;;;;;;-0.50;100.00;99888.52;3479796;82;99101;-80
2022/12/11 00:59:07;;;;;;;26.20;13.53;;;;;;;-0.49;100.00;99890.14;3499159;83;31302;-80
2022/12/11 01:04:07;;;;;;;27.13;12.13;;;;;;;-0.49;100.00;99885.27;3490419;83;99089;-80
2022/12/11 01:14:27;;;;;;;26.40;12.93;;;;;;;-0.49;100.00;99877.17;3499723;83;99394;-79
2022/12/11 01:19:28;;;;;;;25.47;12.77;;;;;;;-0.51;100.00;99886.94;3506198;83;32217;-79
2022/12/11 01:24:29;;;;;;;27.07;12.37;;;;;;;-0.49;100.00;99885.27;3498795;82;99189;-80
2022/12/11 01:29:30;;;;;;;24.83;11.63;;;;;;;-0.50;100.00;99889.88;3502116;83;31689;-80
2022/12/11 01:34:32;;;;;;;24.87;13.27;;;;;;;-0.52;100.00;99881.30;3455858;83;99164;-80
2022/12/11 01:39:33;;;;;;;26.70;12.90;;;;;;;-0.52;100.00;99886.70;3479786;83;31703;-79
2022/12/11 01:44:39;;;;;;;26.87;12.20;;;;;;;-0.53;100.00;99887.02;3476087;83;99051;-80
2022/12/11 01:49:40;;;;;;;;;;;;;;;-0.52;100.00;99882.65;3485670;83;25912;-80
2022/12/11 01:54:42;;;;;;;24.53;11.47;;;;;;;-0.53;100.00;99881.61;3472400;83;85109;-80
2022/12/11 01:59:45;;;;;;;30.90;13.87;;;;;;;-0.54;100.00;99873.27;3480858;84;30782;-80
2022/12/11 02:04:47;;;;;;;25.93;12.93;;;;;;;-0.54;100.00;99870.56;3478506;83;98931;-79
2022/12/11 02:09:49;;;;;;;25.33;12.20;;;;;;;-0.56;100.00;99871.45;3469792;84;26427;-80
2022/12/11 02:15:17;;;;;;;23.13;12.07;;;;;;;-0.53;100.00;99873.50;3480489;83;99129;-80
2022/12/11 02:20:33;;;;;;;26.67;13.70;;;;;;;-0.57;100.00;99876.59;3474591;83;30144;-79
2022/12/11 02:26:03;;;;;;;28.40;12.83;;;;;;;-0.59;100.00;99866.66;3467174;84;99185;-79
2022/12/11 02:31:18;;;;;;;25.87;12.90;;;;;;;-0.61;100.00;99860.80;3474965;84;29160;-79
2022/12/11 02:36:23;;;;;;;24.67;12.03;;;;;;;-0.63;100.00;99863.00;3462526;83;99084;-79
2022/12/11 02:41:25;;;;;;;28.07;12.63;;;;;;;-0.61;100.00;99863.49;3454373;84;32332;-80
2022/12/11 02:46:27;;;;;;;26.03;13.60;;;;;;;-0.63;100.00;99857.59;3476587;83;98888;-79
2022/12/11 02:51:33;;;;;;;25.20;12.10;;;;;;;-0.64;100.00;99855.46;3476589;83;29621;-79
2022/12/11 02:56:43;;;;;;;;;;;;;;;-0.60;100.00;99858.33;3454711;84;99168;-79
2022/12/11 03:01:46;;;;;;;21.97;10.83;;;;;;;-0.61;100.00;99854.81;3468481;83;26253;-79
2022/12/11 03:06:52;;;;;;;24.23;11.17;;;;;;;-0.65;100.00;99853.88;3467298;83;98835;-79
2022/12/11 03:11:53;;;;;;;22.67;12.00;;;;;;;-0.65;100.00;99856.58;3470280;83;26311;-80
2022/12/11 03:17:16;;;;;;;25.37;11.70;;;;;;;-0.67;100.00;99862.84;3468210;83;99002;-80
2022/12/11 03:22:34;;;;;;;28.10;13.17;;;;;;;-0.68;100.00;99858.55;3457241;84;26571;-79
2022/12/11 03:27:49;;;;;;;24.20;12.73;;;;;;;-0.68;100.00;99865.30;3461684;84;98716;-79
2022/12/11 03:32:58;;;;;;;24.50;11.47;;;;;;;-0.72;100.00;99860.86;3494601;82;29713;-79
2022/12/11 03:38:07;;;;;;;21.83;10.33;;;;;;;-0.72;100.00;99860.86;3474012;82;125035;-79
2022/12/11 03:43:11;;;;;;;21.97;11.43;;;;;;;-0.75;100.00;99871.74;3480018;82;33261;-79
2022/12/11 03:48:14;;;;;;;23.33;11.70;;;;;;;-0.78;100.00;99873.70;3493985;82;27186;-79
2022/12/11 03:53:16;;;;;;;22.97;10.50;;;;;;;-0.77;100.00;99878.57;3486984;83;101017;-79
2022/12/11 03:58:17;;;;;;;22.00;11.03;;;;;;;-0.76;100.00;99867.45;3487847;83;31267;-79
2022/12/11 04:03:18;;;;;;;25.00;11.20;;;;;;;-0.76;100.00;99862.59;3474802;82;100743;-79
2022/12/11 04:08:21;;;;;;;22.70;11.03;;;;;;;-0.74;100.00;99853.61;3487794;83;31710;-79
2022/12/11 04:13:21;;;;;;;23.50;10.68;;;;;;;-0.76;100.00;99858.00;3482286;83;99066;-79
2022/12/11 04:29:01;;;;;;;17.90;9.10;;;;;;;-0.83;100.00;99860.35;3485698;84;25955;-78
2022/12/11 04:34:02;;;;;;;22.00;10.93;;;;;;;-0.82;100.00;99853.83;3412194;82;98707;-78
2022/12/11 04:39:04;;;;;;;20.97;10.30;;;;;;;-0.79;100.00;99844.30;3426852;84;32144;-78
2022/12/11 04:44:05;;;;;;;22.80;10.77;;;;;;;-0.78;100.00;99835.89;3395424;84;98823;-79
2022/12/11 04:49:06;;;;;;;19.83;10.00;;;;;;;-0.79;100.00;99828.09;3404227;86;31726;-78
2022/12/11 04:54:07;;;;;;;20.77;9.40;;;;;;;-0.77;100.00;99829.95;3410538;84;98960;-79
2022/12/11 04:59:08;;;;;;;19.30;8.67;;;;;;;-0.77;100.00;99825.89;3419190;85;30818;-78
2022/12/11 05:04:08;;;;;;;19.77;9.03;;;;;;;-0.82;100.00;99820.64;3403929;85;98623;-78
2022/12/11 05:09:12;;;;;;;17.27;8.33;;;;;;;-0.84;100.00;99814.74;3415981;84;32202;-78
2022/12/11 05:14:13;;;;;;;20.35;8.83;;;;;;;-0.88;100.00;99794.91;3406705;85;99231;-78
2022/12/11 05:19:14;;;;;;;16.47;8.47;;;;;;;-0.87;100.00;99791.89;3408522;85;31676;-78
2022/12/11 05:24:15;;;;;;;18.75;8.85;;;;;;;-0.85;100.00;99792.91;3420234;85;99133;-78
2022/12/11 05:29:15;;;;;;;17.67;8.50;;;;;;;-0.87;99.97;99776.23;3419551;85;30211;-78
2022/12/11 05:34:16;;;;;;;18.93;9.50;;;;;;;-0.87;100.00;99774.88;3465833;83;98783;-78
2022/12/11 05:39:17;;;;;;;17.70;8.47;;;;;;;-0.86;100.00;99770.52;3479748;83;29387;-77
2022/12/11 05:44:18;;;;;;;19.50;9.63;;;;;;;-0.87;100.00;99767.58;3477663;83;98859;-79
2022/12/11 05:49:19;;;;;;;20.50;9.83;;;;;;;-0.86;100.00;99786.72;3470933;84;29365;-78
2022/12/11 05:54:20;;;;;;;19.47;10.50;;;;;;;-0.87;100.00;99765.42;3465198;84;98530;-77
2022/12/11 05:59:20;;;;;;;20.73;10.57;;;;;;;-0.87;100.00;99780.28;3474466;83;35914;-78
2022/12/11 06:04:21;;;;;;;20.27;10.37;;;;;;;-0.86;100.00;99779.16;3478127;84;98992;-78
2022/12/11 06:09:22;;;;;;;24.53;12.30;;;;;;;-0.86;100.00;99783.22;3489990;84;34819;-78
2022/12/11 06:14:23;;;;;;;22.27;10.67;;;;;;;-0.89;100.00;99795.45;3471777;83;98900;-78
2022/12/11 06:19:23;;;;;;;25.60;11.20;;;;;;;-0.89;100.00;99783.86;3477746;84;34853;-78
2022/12/11 06:24:24;;;;;;;22.10;11.23;;;;;;;-0.90;100.00;99783.60;3471061;84;99341;-78
2022/12/11 06:29:25;;;;;;;24.80;11.93;;;;;;;-0.92;100.00;99790.69;3469103;84;32566;-79
2022/12/11 06:34:26;;;;;;;24.60;11.90;;;;;;;-0.92;100.00;99796.64;3487177;82;99217;-79
2022/12/11 06:39:26;;;;;;;21.57;10.73;;;;;;;-0.92;100.00;99790.69;3477485;84;32512;-78
2022/12/11 06:44:27;;;;;;;24.70;11.80;;;;;;;-0.93;100.00;99790.43;3497936;82;98561;-79
2022/12/11 06:49:29;;;;;;;21.83;11.20;;;;;;;-0.95;100.00;99781.86;3479513;82;32445;-79
2022/12/11 06:54:30;;;;;;;25.70;11.90;;;;;;;-0.98;100.00;99776.30;3490179;82;98987;-79
2022/12/11 06:59:30;;;;;;;24.80;12.57;;;;;;;-1.01;100.00;99779.08;3499718;82;32977;-79
2022/12/11 07:04:31;;;;;;;24.70;12.18;;;;;;;-1.07;99.92;99772.79;3490619;83;98956;-79
2022/12/11 07:09:33;;;;;;;25.27;13.33;;;;;;;-1.07;100.00;99773.59;3496901;82;27431;-79
2022/12/11 07:14:34;;;;;;;22.90;12.37;;;;;;;-1.08;99.86;99777.41;3491487;84;98971;-78
2022/12/11 07:19:34;;;;;;;24.43;13.07;;;;;;;-1.11;99.61;99773.20;3495000;82;25932;-79
2022/12/11 07:24:35;;;;;;;22.53;11.47;;;;;;;-1.11;99.80;99782.66;3487405;82;98956;-80
2022/12/11 07:29:36;;;;;;;23.93;11.57;;;;;;;-1.15;99.52;99792.48;3506282;82;26696;-80
2022/12/11 07:34:37;;;;;;;22.77;11.25;;;;;;;-1.18;99.47;99802.55;3487742;84;98756;-79
2022/12/11 07:39:37;;;;;;;23.60;11.63;;;;;;;-1.19;99.04;99807.72;3487612;82;26302;-80
2022/12/11 07:44:38;;;;;;;22.30;11.37;;;;;;;-1.28;98.36;99811.75;3494788;82;98703;-80
2022/12/11 07:49:39;;;;;;;22.67;11.57;;;;;;;-1.30;98.96;99806.41;3502961;83;26424;-79
2022/12/11 07:54:40;;;;;;;23.63;11.00;;;;;;;-1.36;98.67;99800.38;3489562;82;98793;-78
2022/12/11 07:59:41;;;;;;;23.47;11.93;;;;;;;-1.39;98.27;99806.94;3495406;84;33011;-79
2022/12/11 08:04:41;;;;;;;20.73;10.57;;;;;;;-1.39;98.52;99817.73;3492127;83;98855;-79
2022/12/11 08:09:42;;;;;;;20.43;10.13;;;;;;;-1.39;98.26;99813.69;3502118;82;32190;-79
2022/12/11 08:14:43;;;;;;;22.17;10.90;;;;;;;-1.37;98.70;99806.87;3501614;83;98854;-79
2022/12/11 08:19:44;;;;;;;21.53;10.13;;;;;;;-1.36;98.41;99807.67;3500686;83;28216;-79
2022/12/11 08:24:46;;;;;;;22.70;10.80;;;;;;;-1.36;98.32;99812.53;3497698;82;98959;-79
2022/12/11 08:29:47;;;;;;;21.77;10.17;;;;;;;-1.41;98.20;99807.81;3498438;83;26474;-78
2022/12/11 08:34:50;;;;;;;23.55;10.90;;;;;;;-1.39;98.01;99810.44;3483202;84;99174;-79
2022/12/11 08:39:51;;;;;;;26.80;12.27;;;;;;;-1.39;97.99;99795.60;3466010;84;25972;-78
2022/12/11 08:44:52;;;;;;;21.87;9.87;;;;;;;-1.42;97.62;99771.92;3465584;84;99239;-78
2022/12/11 08:49:52;;;;;;;22.80;10.53;;;;;;;-1.48;97.13;99754.87;3484927;84;32304;-78
2022/12/11 08:54:53;;;;;;;24.13;11.33;;;;;;;-1.47;97.56;99763.20;3483022;83;98999;-78
2022/12/11 08:59:54;;;;;;;26.67;11.63;;;;;;;-1.44;96.85;99772.80;3487934;84;32878;-79
2022/12/11 09:04:55;;;;;;;29.53;14.27;;;;;;;-1.43;97.25;99787.88;3478914;83;98705;-79
2022/12/11 09:09:55;;;;;;;19.17;9.45;;;;;;;-1.37;97.10;99783.92;3480859;83;31089;-79
2022/12/11 09:14:56;;;;;;;25.13;12.63;;;;;;;-1.38;97.41;99778.30;3467943;84;98279;-77
2022/12/11 09:19:57;;;;;;;20.17;9.97;;;;;;;-1.27;98.20;99767.44;3482675;83;34850;-79
2022/12/11 09:24:58;;;;;;;24.17;10.63;;;;;;;-1.19;97.88;99761.83;3454178;84;98585;-79
2022/12/11 09:29:59;;;;;;;22.27;11.33;;;;;;;-1.17;97.51;99767.14;3475950;84;34828;-79
2022/12/11 09:35:00;;;;;;;21.53;11.30;;;;;;;-1.12;97.90;99764.84;3487068;82;98721;-77
2022/12/11 09:40:01;;;;;;;24.47;11.50;;;;;;;-1.02;97.98;99756.44;3505802;83;36299;-77
2022/12/11 09:45:05;;;;;;;25.37;12.57;;;;;;;-0.93;98.31;99753.20;3484211;83;98744;-79
2022/12/11 09:50:16;;;;;;;23.03;11.90;;;;;;;-0.85;98.27;99746.44;3486937;82;46631;-77
2022/12/11 09:55:23;;;;;;;21.97;11.60;;;;;;;-0.70;98.53;99733.00;3493826;83;98745;-77
2022/12/11 10:00:46;;;;;;;23.33;11.37;;;;;;;-0.70;98.53;99733.00;3455639;84;26322;-79
2022/12/11 10:06:23;;;;;;;22.75;11.78;;;;;;;-0.63;98.14;99730.59;3499206;82;98760;-75
2022/12/11 10:11:44;;;;;;;26.30;13.35;;;;;;;-0.65;97.46;99723.38;3505240;83;26286;-76
2022/12/11 10:17:00;;;;;;;29.90;12.47;;;;;;;-0.65;97.65;99712.03;3439580;82;98806;-75
2022/12/11 10:22:02;;;;;;;28.47;14.20;;;;;;;-0.65;97.29;99706.63;3498074;83;32438;-76
2022/12/11 10:27:18;;;;;;;25.12;12.95;;;;;;;-0.71;97.17;99701.13;3500598;83;98518;-75
2022/12/11 10:32:49;;;;;;;28.43;12.83;;;;;;;-0.68;97.31;99708.61;3486463;82;26558;-78
2022/12/11 10:37:57;;;;;;;23.80;10.17;;;;;;;-0.73;96.96;99697.19;3496412;82;98724;-78
2022/12/11 10:42:58;;;;;;;23.97;11.43;;;;;;;-0.70;97.05;99695.18;3497497;83;26444;-77
2022/12/11 10:48:11;;;;;;;26.93;13.07;;;;;;;-0.72;96.46;99687.96;3490577;82;99015;-77
2022/12/11 10:53:21;;;;;;;23.50;11.47;;;;;;;-0.62;97.52;99683.00;3491702;82;98919;-77
2022/12/11 10:58:27;;;;;;;26.60;12.65;;;;;;;-0.57;96.96;99669.88;3496889;82;29430;-78
2022/12/11 11:03:28;;;;;;;21.70;11.70;;;;;;;-0.55;97.33;99662.25;3489682;82;99069;-77
2022/12/11 11:08:40;;;;;;;27.20;14.37;;;;;;;-0.53;97.12;99651.36;3505809;82;26196;-78
2022/12/11 11:13:41;;;;;;;24.75;13.98;;;;;;;-0.52;97.07;99642.13;3497716;82;98961;-78
2022/12/11 11:18:52;;;;;;;25.97;12.93;;;;;;;-0.46;97.19;99628.67;3500212;82;34871;-79
2022/12/11 11:23:54;;;;;;;27.47;13.90;;;;;;;-0.41;97.34;99623.09;3496422;82;98953;-79
2022/12/11 11:28:56;;;;;;;22.30;11.67;;;;;;;-0.37;96.86;99622.11;3509455;82;34845;-77
2022/12/11 11:34:06;;;;;;;28.17;12.57;;;;;;;-0.34;97.00;99622.60;3483773;82;98701;-77
2022/12/11 11:39:31;;;;;;;23.77;11.93;;;;;;;-0.28;97.15;99621.30;3477168;83;26146;-78
2022/12/11 11:44:40;;;;;;;25.60;14.73;;;;;;;-0.27;96.71;99616.34;3477243;83;98467;-76
2022/12/11 11:50:13;;;;;;;45.00;19.17;;;;;;;-0.25;96.45;99614.68;3483942;83;26430;-77
2022/12/11 11:55:20;;;;;;;35.25;18.15;;;;;;;-0.22;96.49;99622.70;3469932;83;98827;-78
2022/12/11 12:00:28;;;;;;;23.33;11.77;;;;;;;-0.18;96.53;99613.60;3481354;83;26226;-78
2022/12/11 12:05:38;;;;;;;25.07;12.50;;;;;;;-0.19;95.78;99609.31;3484338;83;98912;-79
2022/12/11 12:10:59;;;;;;;60.43;23.27;;;;;;;-0.17;95.26;99600.89;3457240;83;26683;-78
2022/12/11 12:16:01;;;;;;;52.87;22.30;;;;;;;-0.15;95.35;99596.73;3463006;84;98829;-77
2022/12/11 12:21:18;;;;;;;25.47;11.40;;;;;;;-0.10;95.49;99591.92;3477771;84;26378;-78
2022/12/11 12:26:31;;;;;;;24.15;11.45;;;;;;;-0.06;95.31;99590.16;3463172;83;99046;-78
2022/12/11 12:31:58;;;;;;;19.50;9.70;;;;;;;-0.07;94.68;99591.05;3483274;84;26836;-77
2022/12/11 12:37:22;;;;;;;20.65;9.85;;;;;;;-0.13;94.39;99586.38;3475991;84;98253;-79
2022/12/11 12:42:40;;;;;;;17.97;8.60;;;;;;;-0.21;94.39;99580.48;3478273;83;25983;-77
2022/12/11 12:47:44;;;;;;;16.15;7.55;;;;;;;-0.22;94.71;99583.73;3470135;84;98785;-78
2022/12/11 12:52:46;;;;;;;24.50;10.83;;;;;;;-0.33;93.90;99579.00;3474549;83;26485;-77
2022/12/11 12:57:59;;;;;;;25.12;11.97;;;;;;;-0.37;94.28;99573.45;3471658;83;98834;-76
2022/12/11 13:03:17;;;;;;;22.17;9.73;;;;;;;-0.43;94.24;99564.53;3474145;83;25948;-77
2022/12/11 13:08:27;;;;;;;17.77;8.43;;;;;;;-0.43;94.69;99567.23;3486201;83;26414;-76
2022/12/11 13:13:42;;;;;;;15.87;8.33;;;;;;;-0.44;94.56;99569.67;3473654;83;98748;-77
2022/12/11 13:18:46;;;;;;;16.23;8.20;;;;;;;-0.40;95.01;99567.91;3470859;84;26517;-77
2022/12/11 13:23:47;;;;;;;21.00;10.93;;;;;;;-0.38;95.08;99569.75;3468782;83;98714;-77
2022/12/11 13:28:50;;;;;;;19.70;11.70;;;;;;;-0.37;95.41;99565.34;3474287;83;35481;-79
2022/12/11 13:33:56;;;;;;;17.70;9.10;;;;;;;-0.31;95.71;99557.28;3475893;84;98721;-79
2022/12/11 13:39:05;;;;;;;18.07;9.37;;;;;;;-0.28;95.74;99565.30;3496151;82;27115;-79
2022/12/11 13:44:07;;;;;;;21.70;11.08;;;;;;;-0.25;96.01;99557.91;3492183;83;98522;-79
2022/12/11 13:49:19;;;;;;;21.93;10.83;;;;;;;-0.19;96.13;99563.36;3496038;82;26036;-78
2022/12/11 13:54:22;;;;;;;25.57;12.57;;;;;;;-0.17;96.07;99557.05;3491092;82;99781;-78
2022/12/11 13:59:37;;;;;;;30.13;14.63;;;;;;;-0.19;96.24;99549.84;3476916;84;25980;-79
2022/12/11 14:04:38;;;;;;;24.30;13.53;;;;;;;-0.17;96.27;99557.63;3495273;82;98788;-77
2022/12/11 14:09:44;;;;;;;25.43;13.67;;;;;;;-0.16;96.58;99555.38;3487465;83;34862;-77
2022/12/11 14:14:53;;;;;;;21.77;9.70;;;;;;;-0.16;96.70;99554.02;3478028;83;98846;-77
2022/12/11 14:19:58;;;;;;;22.50;10.83;;;;;;;-0.17;96.67;99550.29;3492388;82;26073;-77
2022/12/11 14:25:04;;;;;;;21.43;8.87;;;;;;;-0.18;96.82;99552.77;3496660;82;99009;-78
2022/12/11 14:30:12;;;;;;;19.23;9.38;;;;;;;-0.19;96.85;99560.65;3500881;83;26340;-79
2022/12/11 14:35:30;;;;;;;19.60;9.63;;;;;;;-0.21;97.01;99564.25;3489696;82;98873;-80
2022/12/11 14:40:36;;;;;;;21.47;10.13;;;;;;;-0.22;97.29;99553.98;3497496;83;26243;-78
2022/12/11 14:45:42;;;;;;;24.18;11.43;;;;;;;-0.17;97.44;99555.15;3495112;82;98969;-77
2022/12/11 14:50:52;;;;;;;20.70;10.23;;;;;;;-0.17;97.49;99551.64;3503216;83;34372;-79
2022/12/11 14:56:01;;;;;;;23.35;10.53;;;;;;;-0.17;97.45;99549.52;3495432;82;98721;-79
2022/12/11 15:01:06;;;;;;;26.07;13.63;;;;;;;-0.20;97.45;99550.38;3502648;82;28499;-78
2022/12/11 15:06:32;;;;;;;25.77;14.40;;;;;;;-0.22;97.44;99548.34;3498024;83;99021;-79
2022/12/11 15:11:32;;;;;;;30.00;16.27;;;;;;;-0.27;97.49;99556.09;3498957;82;28388;-79
2022/12/11 15:16:37;;;;;;;28.57;14.10;;;;;;;-0.31;97.52;99558.64;3498308;82;98865;-79
2022/12/11 15:21:38;;;;;;;30.60;18.40;;;;;;;-0.37;97.53;99559.94;3494787;84;26672;-80
2022/12/11 15:26:45;;;;;;;25.37;13.93;;;;;;;-0.43;97.70;99555.61;3487454;83;98953;-79
2022/12/11 15:31:46;;;;;;;25.87;13.77;;;;;;;-0.50;97.85;99552.06;3497348;82;28968;-80
2022/12/11 15:36:47;;;;;;;27.13;13.90;;;;;;;-0.56;97.92;99550.66;3479414;83;98909;-79
2022/12/11 15:41:48;;;;;;;28.07;14.00;;;;;;;-0.63;98.03;99544.98;3482925;84;34831;-78
2022/12/11 15:46:49;;;;;;;27.47;12.97;;;;;;;-0.67;98.12;99543.26;3480042;83;98818;-79
2022/12/11 15:51:50;;;;;;;23.90;12.53;;;;;;;-0.74;98.30;99549.16;3476833;83;34808;-79
2022/12/11 15:56:51;;;;;;;21.70;12.40;;;;;;;-0.80;98.39;99544.25;3497765;82;98518;-78
2022/12/11 16:01:52;;;;;;;21.57;10.53;;;;;;;-0.87;98.62;99539.91;3498346;83;34940;-78
2022/12/11 16:06:53;;;;;;;25.33;12.17;;;;;;;-0.94;98.80;99549.08;3488519;83;98795;-79
2022/12/11 16:11:57;;;;;;;25.60;11.97;;;;;;;-1.01;98.99;99550.91;3506095;83;34852;-79
2022/12/11 16:16:56;;;;;;;29.25;13.10;;;;;;;-1.04;99.19;99547.48;3501219;83;98629;-78
2022/12/11 16:21:57;;;;;;;21.13;11.37;;;;;;;-1.08;99.47;99540.37;3490088;83;36002;-78
2022/12/11 16:26:58;;;;;;;24.40;11.13;;;;;;;-1.12;99.62;99542.11;3480940;83;98832;-78
2022/12/11 16:31:59;;;;;;;25.47;10.63;;;;;;;-1.17;99.85;99540.39;3487251;83;35445;-79
2022/12/11 16:37:01;;;;;;;23.32;10.43;;;;;;;-1.19;99.97;99527.78;3469730;83;98541;-78
2022/12/11 16:42:04;;;;;;;24.77;12.00;;;;;;;-1.23;100.00;99530.88;3485874;83;30094;-78
2022/12/11 16:47:04;;;;;;;23.57;11.22;;;;;;;-1.25;100.00;99526.38;3477013;83;99107;-78
2022/12/11 16:52:05;;;;;;;27.97;12.77;;;;;;;-1.29;100.00;99528.11;3485319;83;32464;-78
2022/12/11 16:57:06;;;;;;;23.70;11.13;;;;;;;-1.33;100.00;99533.91;3475666;83;98948;-78
2022/12/11 17:02:09;;;;;;;29.73;12.17;;;;;;;-1.35;100.00;99529.95;3480485;83;33004;-78
2022/12/11 17:07:10;;;;;;;27.17;12.53;;;;;;;-1.37;100.00;99528.13;3454965;83;99165;-78
2022/12/11 17:12:11;;;;;;;29.60;12.53;;;;;;;-1.38;100.00;99534.65;3477850;83;32456;-78
2022/12/11 17:17:14;;;;;;;30.10;13.13;;;;;;;-1.38;100.00;99543.52;3461438;83;98927;-80
2022/12/11 17:22:15;;;;;;;27.30;12.77;;;;;;;-1.38;100.00;99541.39;3481969;83;27155;-80
2022/12/11 17:27:16;;;;;;;29.63;15.23;;;;;;;-1.39;100.00;99543.28;3476384;83;99344;-79
2022/12/11 17:32:17;;;;;;;35.87;16.90;;;;;;;-1.40;100.00;99534.96;3467323;84;32396;-79
2022/12/11 17:37:19;;;;;;;31.73;15.57;;;;;;;-1.44;100.00;99531.85;3479406;84;99046;-78
2022/12/11 17:42:19;;;;;;;33.67;17.13;;;;;;;-1.42;100.00;99540.44;3479874;83;32960;-80
2022/12/11 17:47:21;;;;;;;34.50;16.55;;;;;;;-1.43;100.00;99532.89;3479641;83;99027;-80
2022/12/11 17:52:22;;;;;;;31.53;15.30;;;;;;;-1.45;100.00;99535.66;3477934;83;33173;-79
2022/12/11 17:57:22;;;;;;;29.23;13.40;;;;;;;-1.47;100.00;99530.61;3479090;83;98967;-79
2022/12/11 18:02:24;;;;;;;31.90;14.23;;;;;;;-1.46;100.00;99539.48;3481455;83;33629;-79
2022/12/11 18:07:25;;;;;;;26.27;12.47;;;;;;;-1.46;100.00;99544.34;3478167;83;98820;-78
2022/12/11 18:12:26;;;;;;;25.13;11.77;;;;;;;-1.45;100.00;99552.66;3481476;83;32543;-77
2022/12/11 18:17:27;;;;;;;25.93;11.53;;;;;;;-1.42;100.00;99549.88;3483022;83;98983;-77
2022/12/11 18:22:28;;;;;;;22.37;11.63;;;;;;;-1.40;100.00;99547.65;3485722;83;32727;-77
2022/12/11 18:27:29;;;;;;;23.87;11.65;;;;;;;-1.36;100.00;99552.11;3472035;83;98722;-78
2022/12/11 18:32:30;;;;;;;25.70;11.17;;;;;;;-1.33;100.00;99543.36;3469939;83;28256;-78
2022/12/11 18:37:31;;;;;;;25.07;10.27;;;;;;;-1.30;100.00;99544.08;3470807;84;98891;-78
2022/12/11 18:42:31;;;;;;;21.83;11.07;;;;;;;-1.28;100.00;99545.08;3487172;83;25933;-78
2022/12/11 18:47:32;;;;;;;21.67;10.27;;;;;;;-1.26;100.00;99544.22;3463581;84;99062;-78
2022/12/11 18:52:34;;;;;;;20.47;10.03;;;;;;;-1.25;100.00;99544.45;3482598;84;26233;-79
2022/12/11 18:57:35;;;;;;;21.77;10.37;;;;;;;-1.23;100.00;99547.07;3480563;83;98961;-78
2022/12/11 19:02:36;;;;;;;23.10;10.37;;;;;;;-1.21;100.00;99538.66;3468527;84;26814;-78
2022/12/11 19:07:37;;;;;;;29.17;11.27;;;;;;;-1.21;100.00;99532.69;3463152;83;98872;-78
2022/12/11 19:12:38;;;;;;;24.83;11.73;;;;;;;-1.20;100.00;99534.27;3484222;83;26329;-78
2022/12/11 19:17:41;;;;;;;25.17;12.17;;;;;;;-1.17;100.00;99538.23;3486821;84;98928;-78
2022/12/11 19:22:42;;;;;;;24.27;11.50;;;;;;;-1.17;100.00;99540.93;3487000;83;26476;-78
2022/12/11 19:27:46;;;;;;;22.13;10.53;;;;;;;-1.14;100.00;99544.36;3478039;84;98698;-80
2022/12/11 19:32:46;;;;;;;25.27;12.70;;;;;;;-1.12;100.00;99537.52;3484263;83;27474;-79
2022/12/11 19:37:47;;;;;;;21.53;10.17;;;;;;;-1.09;100.00;99537.44;3477532;83;99012;-79
2022/12/11 19:42:48;;;;;;;21.87;11.43;;;;;;;-1.10;100.00;99535.86;3483928;84;26716;-79
2022/12/11 19:47:49;;;;;;;21.68;10.58;;;;;;;-1.09;100.00;99544.95;3482989;84;98955;-79
2022/12/11 19:52:50;;;;;;;22.07;10.53;;;;;;;-1.11;100.00;99539.67;3476585;83;26414;-79
2022/12/11 19:57:51;;;;;;;25.77;12.80;;;;;;;-1.14;100.00;99539.76;3460033;84;98830;-79
2022/12/11 20:02:51;;;;;;;17.77;8.23;;;;;;;-1.14;100.00;99541.66;3483777;83;26589;-79
2022/12/11 20:07:52;;;;;;;21.94;10.02;;;;;;;-1.20;100.00;99532.92;3497892;83;98881;-79
2022/12/11 20:12:55;;;;;;;23.27;9.93;;;;;;;-1.22;100.00;99533.03;3495498;83;32968;-79
2022/12/11 20:17:58;;;;;;;17.60;8.57;;;;;;;-1.27;100.00;99533.97;3492304;83;98896;-79
2022/12/11 20:22:59;;;;;;;20.40;9.90;;;;;;;-1.31;100.00;99526.84;3501354;83;25946;-79
2022/12/11 20:28:00;;;;;;;21.83;9.20;;;;;;;-1.32;100.00;99526.62;3491747;83;98502;-79
2022/12/11 20:33:01;;;;;;;21.20;9.83;;;;;;;-1.37;100.00;99524.86;3476961;83;32877;-79
2022/12/11 20:38:02;;;;;;;23.30;9.45;;;;;;;-1.42;100.00;99514.81;3474222;82;98615;-79
2022/12/11 20:43:02;;;;;;;22.97;10.63;;;;;;;-1.42;100.00;99519.63;3496758;82;32776;-79
2022/12/11 20:48:04;;;;;;;23.77;10.30;;;;;;;-1.46;100.00;99514.66;3471353;82;98729;-79
2022/12/11 20:53:04;;;;;;;24.77;10.63;;;;;;;-1.48;100.00;99511.47;3513108;82;31969;-79
2022/12/11 20:58:06;;;;;;;23.50;9.80;;;;;;;-1.51;100.00;99508.62;3497669;82;98827;-78
2022/12/11 21:03:07;;;;;;;21.90;10.20;;;;;;;-1.54;100.00;99506.00;3505637;82;32992;-78
2022/12/11 21:08:08;;;;;;;21.63;10.03;;;;;;;-1.58;100.00;99502.35;3503569;82;98847;-78
2022/12/11 21:13:09;;;;;;;20.70;9.90;;;;;;;-1.61;100.00;99501.66;3503356;82;99006;-78
2022/12/11 21:18:10;;;;;;;24.40;10.70;;;;;;;-1.63;100.00;99496.34;3471455;83;31095;-78
2022/12/11 21:23:11;;;;;;;30.47;12.97;;;;;;;-1.64;100.00;99500.16;3463113;83;99422;-79
2022/12/11 21:28:12;;;;;;;27.97;13.17;;;;;;;-1.66;100.00;99497.77;3501892;82;31624;-76
2022/12/11 21:33:13;;;;;;;24.70;12.13;;;;;;;-1.67;100.00;99504.28;3496113;82;99184;-77
2022/12/11 21:38:14;;;;;;;25.60;11.47;;;;;;;-1.67;100.00;99515.62;3474011;83;32520;-78
2022/12/11 21:43:15;;;;;;;23.53;11.43;;;;;;;-1.68;100.00;99510.80;3470253;83;99350;-78
2022/12/11 21:48:15;;;;;;;23.30;11.57;;;;;;;-1.68;100.00;99507.30;3478815;83;32289;-79
2022/12/11 21:53:16;;;;;;;24.50;10.47;;;;;;;-1.68;100.00;99505.95;3478226;83;99142;-78
2022/12/11 21:58:17;;;;;;;25.57;12.73;;;;;;;-1.69;100.00;99505.71;3494903;83;29768;-78
2022/12/11 22:03:18;;;;;;;24.30;11.50;;;;;;;-1.71;100.00;99510.07;3484348;83;99114;-78
2022/12/11 22:08:18;;;;;;;23.27;11.17;;;;;;;-1.72;100.00;99507.14;3468047;83;34971;-77
2022/12/11 22:13:19;;;;;;;25.13;12.00;;;;;;;-1.73;100.00;99500.70;3475410;83;99161;-78
2022/12/11 22:18:21;;;;;;;26.07;11.90;;;;;;;-1.75;100.00;99496.98;3483660;83;34946;-78
2022/12/11 22:23:22;;;;;;;26.90;12.83;;;;;;;-1.80;100.00;99496.36;3469690;81;99048;-77
2022/12/11 22:28:23;;;;;;;30.65;14.18;;;;;;;-1.83;100.00;99496.98;3474388;83;35390;-77
2022/12/11 22:33:24;;;;;;;27.33;11.43;;;;;;;-1.88;100.00;99505.23;3460374;83;99040;-78
2022/12/11 22:38:25;;;;;;;27.63;12.30;;;;;;;-1.94;100.00;99501.11;3486225;82;35703;-79
2022/12/11 22:43:26;;;;;;;25.72;10.55;;;;;;;-1.99;100.00;99498.02;3492378;82;98889;-79
2022/12/11 22:48:27;;;;;;;26.83;12.07;;;;;;;-2.04;100.00;99502.22;3490938;82;35960;-77
2022/12/11 22:53:28;;;;;;;24.47;11.13;;;;;;;-2.10;100.00;99499.45;3488631;82;102174;-78
2022/12/11 22:58:28;;;;;;;21.20;10.20;;;;;;;-2.12;100.00;99511.11;3503293;82;34834;-78
2022/12/11 23:03:29;;;;;;;22.48;10.38;;;;;;;-2.18;100.00;99504.83;3490802;82;99259;-77
2022/12/11 23:08:30;;;;;;;24.27;11.40;;;;;;;-2.22;100.00;99506.02;3503979;82;29708;-78
2022/12/11 23:13:31;;;;;;;29.63;11.78;;;;;;;-2.28;100.00;99500.55;3486713;82;99447;-78
2022/12/11 23:18:32;;;;;;;26.63;12.37;;;;;;;-2.33;100.00;99499.35;3501331;83;33385;-78
2022/12/11 23:23:33;;;;;;;26.20;12.27;;;;;;;-2.38;100.00;99498.15;3484603;83;99210;-79
2022/12/11 23:28:34;;;;;;;24.77;11.87;;;;;;;-2.43;100.00;99498.30;3482686;82;25908;-78